Time;durP1;ratioP1;P1;durP2;ratioP2;P2;SDS_P1;SDS_P2;PMS_P1;PMS_P2;Temp;Humidity;BMP_temperature;BMP_pressure;BME280_temperature;BME280_humidity;BME280_pressure;Samples;Min_cycle;Max_cycle;Signal;HPM_P1;HPM_P2
2021/12/06 00:00:23;;;;;;;33.60;15.52;;;-0.30;99.90;;;;;;5049752;28;20025;-76
2021/12/06 00:02:51;;;;;;;27.42;12.48;;;-0.20;99.90;;;;;;5049221;28;20048;-76
2021/12/06 00:05:18;;;;;;;34.65;15.52;;;-0.20;99.90;;;;;;5064984;28;20025;-76
2021/12/06 00:07:44;;;;;;;36.10;16.05;;;-0.20;99.90;;;;;;5050358;28;20427;-76
2021/12/06 00:10:11;;;;;;;33.15;15.15;;;-0.20;99.90;;;;;;5050571;28;20464;-76
2021/12/06 00:12:37;;;;;;;;;;;-0.30;99.90;;;;;;5049346;28;20045;-76
2021/12/06 00:15:04;;;;;;;33.67;14.57;;;-0.20;99.90;;;;;;5049940;28;20331;-75
2021/12/06 00:17:30;;;;;;;36.38;16.02;;;-0.10;99.90;;;;;;5049868;28;20488;-76
2021/12/06 00:19:56;;;;;;;40.45;17.45;;;-0.10;99.90;;;;;;5050223;28;20108;-76
2021/12/06 00:22:23;;;;;;;45.15;17.00;;;-0.10;99.90;;;;;;5064241;28;20491;-76
2021/12/06 00:24:50;;;;;;;;;;;-0.10;99.90;;;;;;5070410;28;20024;-76
2021/12/06 00:27:15;;;;;;;44.75;18.33;;;-0.10;99.90;;;;;;5068458;28;19950;-76
2021/12/06 00:29:41;;;;;;;43.65;18.45;;;-0.10;99.90;;;;;;5085325;28;20563;-76
2021/12/06 00:32:07;;;;;;;46.17;19.77;;;-0.10;99.90;;;;;;5070680;28;20471;-76
2021/12/06 00:34:35;;;;;;;48.75;21.77;;;-0.10;99.90;;;;;;5067527;28;20040;-78
2021/12/06 00:37:16;;;;;;;47.83;20.92;;;-0.20;99.90;;;;;;5049593;28;20025;-76
2021/12/06 00:39:47;;;;;;;52.60;23.33;;;-0.10;99.90;;;;;;5051406;28;20076;-76
2021/12/06 00:42:13;;;;;;;49.50;23.52;;;-0.10;99.90;;;;;;5068808;28;20399;-75
2021/12/06 00:44:39;;;;;;;;;;;-0.10;99.90;;;;;;5070012;28;20025;-76
2021/12/06 00:47:05;;;;;;;59.75;23.38;;;-0.10;99.90;;;;;;5068237;28;19908;-76
2021/12/06 00:49:32;;;;;;;48.72;22.48;;;-0.10;99.90;;;;;;5068246;28;20499;-75
2021/12/06 00:51:58;;;;;;;55.53;23.95;;;-0.10;99.90;;;;;;5048413;28;20044;-76
2021/12/06 00:54:24;;;;;;;62.37;26.10;;;-0.10;99.90;;;;;;5048274;28;20128;-76
2021/12/06 00:56:50;;;;;;;61.13;26.13;;;-0.10;99.90;;;;;;5049469;28;20294;-75
2021/12/06 00:59:15;;;;;;;59.17;23.80;;;-0.10;99.90;;;;;;5065924;28;20049;-76
2021/12/06 01:01:41;;;;;;;57.60;23.57;;;0.00;99.90;;;;;;5049569;28;20029;-76
2021/12/06 01:04:07;;;;;;;58.33;24.43;;;0.00;99.90;;;;;;5050598;28;20040;-78
2021/12/06 01:06:33;;;;;;;53.15;22.60;;;0.00;99.90;;;;;;5064353;28;20425;-77
2021/12/06 01:09:00;;;;;;;55.08;23.83;;;0.50;99.90;;;;;;5050309;28;20041;-76
2021/12/06 01:11:25;;;;;;;53.20;23.80;;;0.10;99.90;;;;;;5069633;28;20491;-75
2021/12/06 01:13:51;;;;;;;56.65;25.95;;;0.00;99.90;;;;;;5073806;28;20045;-76
2021/12/06 01:16:17;;;;;;;52.60;23.15;;;0.00;99.90;;;;;;5055297;28;20401;-76
2021/12/06 01:18:43;;;;;;;47.40;21.48;;;0.00;99.90;;;;;;5054087;28;20473;-76
2021/12/06 01:23:54;;;;;;;48.10;20.57;;;0.00;99.90;;;;;;5053903;28;20029;-75
2021/12/06 01:31:54;;;;;;;48.83;20.23;;;0.00;99.90;;;;;;5053914;28;20268;-76
2021/12/06 01:39:51;;;;;;;44.03;18.30;;;0.10;99.90;;;;;;5053669;28;20044;-76
2021/12/06 01:42:20;;;;;;;49.83;19.43;;;0.20;99.90;;;;;;5052849;28;20500;-76
2021/12/06 01:44:51;;;;;;;41.92;19.35;;;0.20;99.90;;;;;;5052931;28;20017;-76
2021/12/06 01:47:21;;;;;;;39.42;18.67;;;0.20;99.90;;;;;;5051377;28;20024;-76
2021/12/06 01:50:00;;;;;;;46.05;18.35;;;0.20;99.90;;;;;;5052714;28;20056;-76
2021/12/06 01:52:30;;;;;;;35.78;16.52;;;0.20;99.90;;;;;;5051783;28;20036;-75
2021/12/06 01:54:57;;;;;;;38.05;16.77;;;0.20;99.90;;;;;;5057063;28;20074;-76
2021/12/06 01:57:25;;;;;;;41.72;17.30;;;0.20;99.90;;;;;;5071341;28;20029;-77
2021/12/06 01:59:53;;;;;;;41.25;18.27;;;0.20;99.90;;;;;;5067774;28;20099;-76
2021/12/06 02:02:20;;;;;;;35.35;16.35;;;0.20;99.90;;;;;;5067882;28;20036;-77
2021/12/06 02:04:46;;;;;;;33.83;15.32;;;0.20;99.90;;;;;;5055574;28;20131;-76
2021/12/06 02:07:17;;;;;;;35.00;15.23;;;0.30;99.90;;;;;;5072502;28;20146;-76
2021/12/06 02:09:45;;;;;;;33.47;15.57;;;0.30;99.90;;;;;;5070968;28;20036;-76
2021/12/06 02:12:11;;;;;;;32.30;15.10;;;0.30;99.90;;;;;;5072139;28;20049;-77
2021/12/06 02:14:50;;;;;;;33.33;14.77;;;0.20;99.90;;;;;;5069708;28;20040;-76
2021/12/06 02:17:22;;;;;;;32.28;14.05;;;0.20;99.90;;;;;;5070784;28;20020;-76
2021/12/06 02:19:56;;;;;;;31.45;13.98;;;0.30;99.90;;;;;;5069145;28;20340;-75
2021/12/06 02:22:25;;;;;;;34.35;15.45;;;0.30;99.90;;;;;;5055673;28;20058;-77
2021/12/06 02:24:53;;;;;;;42.22;16.23;;;0.30;99.90;;;;;;5051287;28;20055;-76
2021/12/06 02:27:20;;;;;;;34.55;16.45;;;0.30;99.90;;;;;;5050625;28;20554;-76
2021/12/06 02:29:48;;;;;;;35.55;15.55;;;0.20;99.90;;;;;;5053517;28;20071;-76
2021/12/06 02:32:15;;;;;;;34.22;15.35;;;0.20;99.90;;;;;;5071073;28;20395;-76
2021/12/06 02:34:46;;;;;;;28.05;14.73;;;0.20;99.90;;;;;;5069907;28;20056;-76
2021/12/06 02:37:15;;;;;;;34.47;14.05;;;0.30;99.90;;;;;;5070929;28;20480;-76
2021/12/06 02:39:41;;;;;;;35.17;15.50;;;0.30;99.90;;;;;;5067473;28;20333;-77
2021/12/06 02:42:11;;;;;;;38.83;14.93;;;0.30;99.90;;;;;;5049206;28;20021;-75
2021/12/06 02:44:37;;;;;;;35.30;15.02;;;0.30;99.90;;;;;;5051300;28;20084;-76
2021/12/06 02:47:03;;;;;;;30.83;14.63;;;0.30;99.90;;;;;;5049335;28;20516;-76
2021/12/06 02:49:29;;;;;;;31.15;15.48;;;0.30;99.90;;;;;;5049239;28;20392;-76
2021/12/06 02:51:55;;;;;;;30.73;15.30;;;0.30;99.90;;;;;;5050915;28;20056;-75
2021/12/06 02:54:23;;;;;;;35.23;13.43;;;0.20;99.90;;;;;;5051034;28;20079;-77
2021/12/06 02:59:50;;;;;;;34.50;15.68;;;0.20;99.90;;;;;;5048611;28;20043;-76
2021/12/06 03:02:19;;;;;;;38.28;16.17;;;0.20;99.90;;;;;;5066189;28;20025;-76
2021/12/06 03:04:46;;;;;;;31.00;13.90;;;0.20;99.90;;;;;;5050641;28;20029;-76
2021/12/06 03:07:15;;;;;;;36.20;15.88;;;0.20;99.90;;;;;;5049098;28;20049;-75
2021/12/06 03:09:41;;;;;;;31.30;15.13;;;0.20;99.90;;;;;;5068893;28;20137;-77
2021/12/06 03:12:11;;;;;;;36.42;16.05;;;0.20;99.90;;;;;;5012159;28;1654969;-75
2021/12/06 03:14:42;;;;;;;35.80;15.15;;;0.20;99.90;;;;;;5068390;28;20036;-76
2021/12/06 03:17:12;;;;;;;31.02;14.60;;;0.20;99.90;;;;;;5050993;28;20124;-75
2021/12/06 03:19:39;;;;;;;28.48;14.90;;;0.20;99.90;;;;;;5050524;28;20045;-75
2021/12/06 03:22:06;;;;;;;32.53;13.32;;;0.20;99.90;;;;;;5062377;28;20456;-76
2021/12/06 03:24:32;;;;;;;31.52;14.20;;;0.20;99.90;;;;;;5068980;28;20021;-76
2021/12/06 03:26:59;;;;;;;32.40;15.93;;;0.20;99.90;;;;;;5070650;28;20317;-76
2021/12/06 03:29:26;;;;;;;30.58;14.60;;;0.20;99.90;;;;;;5069768;28;20055;-77
2021/12/06 03:31:52;;;;;;;30.33;14.90;;;0.20;99.90;;;;;;5048962;28;20063;-77
2021/12/06 03:34:18;;;;;;;33.27;14.73;;;0.20;99.90;;;;;;5050870;28;20029;-76
2021/12/06 03:36:45;;;;;;;29.35;13.73;;;0.20;99.90;;;;;;5050850;28;20328;-77
2021/12/06 03:39:23;;;;;;;31.73;13.60;;;0.20;99.90;;;;;;5049678;28;20025;-77
2021/12/06 03:41:50;;;;;;;29.10;14.20;;;0.20;99.90;;;;;;5049629;28;20090;-76
2021/12/06 03:44:16;;;;;;;31.27;13.75;;;0.10;99.90;;;;;;5050675;28;20417;-75
2021/12/06 03:46:46;;;;;;;31.02;13.63;;;0.20;99.90;;;;;;5048989;28;20087;-77
2021/12/06 03:49:14;;;;;;;35.70;15.65;;;0.20;99.90;;;;;;5051041;28;20021;-76
2021/12/06 03:51:41;;;;;;;28.92;14.20;;;0.20;99.90;;;;;;5070400;28;20628;-76
2021/12/06 03:54:08;;;;;;;28.05;13.70;;;0.20;99.90;;;;;;5069908;28;20036;-75
2021/12/06 03:56:38;;;;;;;28.13;14.32;;;0.20;99.90;;;;;;5051228;28;20067;-76
2021/12/06 03:59:04;;;;;;;27.10;14.05;;;0.20;99.90;;;;;;5049987;28;20029;-75
2021/12/06 04:01:31;;;;;;;32.55;13.80;;;0.20;99.90;;;;;;5050494;28;20025;-76
2021/12/06 04:04:01;;;;;;;31.42;14.07;;;0.20;99.90;;;;;;5049352;28;20571;-76
2021/12/06 04:06:26;;;;;;;34.92;14.57;;;0.20;99.90;;;;;;5066903;28;20024;-76
2021/12/06 04:08:52;;;;;;;30.13;13.32;;;0.20;99.90;;;;;;5070984;28;20035;-75
2021/12/06 04:11:18;;;;;;;32.00;13.88;;;0.20;99.90;;;;;;5082476;28;20036;-76
2021/12/06 04:13:44;;;;;;;32.13;15.25;;;0.20;99.90;;;;;;5068951;28;20577;-76
2021/12/06 04:16:10;;;;;;;35.38;14.50;;;0.20;99.90;;;;;;5073048;28;20136;-77
2021/12/06 04:18:36;;;;;;;33.03;14.02;;;0.20;99.90;;;;;;5070501;28;20040;-74
2021/12/06 04:21:04;;;;;;;33.42;13.20;;;0.10;99.90;;;;;;5059972;28;20437;-76
2021/12/06 04:23:31;;;;;;;31.70;13.90;;;0.20;99.90;;;;;;5069934;28;20028;-77
2021/12/06 04:25:56;;;;;;;;;;;0.20;99.90;;;;;;5055669;28;20128;-77
2021/12/06 04:28:22;;;;;;;33.53;13.55;;;0.30;99.90;;;;;;5050322;28;19974;-76
2021/12/06 04:30:50;;;;;;;32.28;14.05;;;0.30;99.90;;;;;;5050560;28;20540;-77
2021/12/06 04:33:16;;;;;;;33.03;14.88;;;0.30;99.90;;;;;;5049763;28;20257;-76
2021/12/06 04:35:44;;;;;;;32.30;15.77;;;0.30;99.90;;;;;;5060754;28;20032;-77
2021/12/06 04:38:10;;;;;;;38.05;15.80;;;0.30;99.90;;;;;;5069590;28;20089;-75
2021/12/06 04:40:37;;;;;;;31.52;13.73;;;0.30;99.90;;;;;;5068859;28;20028;-76
2021/12/06 04:43:04;;;;;;;33.15;13.82;;;0.30;99.90;;;;;;5068404;28;20029;-76
2021/12/06 04:45:30;;;;;;;37.28;16.00;;;0.30;99.90;;;;;;5074624;28;20044;-75
2021/12/06 04:47:56;;;;;;;39.83;16.77;;;0.20;99.90;;;;;;5069949;28;20029;-75
2021/12/06 04:50:26;;;;;;;41.13;15.35;;;0.30;99.90;;;;;;5069448;28;20025;-76
2021/12/06 04:52:54;;;;;;;34.85;14.93;;;0.20;99.90;;;;;;5069943;28;20563;-77
2021/12/06 04:55:31;;;;;;;38.58;16.17;;;0.30;99.90;;;;;;5071284;28;20055;-76
2021/12/06 04:57:57;;;;;;;42.03;18.05;;;0.30;99.90;;;;;;5068613;28;20476;-76
2021/12/06 05:00:52;;;;;;;33.58;14.48;;;0.30;99.90;;;;;;5079033;28;20029;-77
2021/12/06 05:03:18;;;;;;;38.17;14.73;;;0.30;99.90;;;;;;5069191;28;20044;-76
2021/12/06 05:05:52;;;;;;;31.05;15.43;;;0.40;99.90;;;;;;5056780;28;20043;-76
2021/12/06 05:08:37;;;;;;;34.80;15.88;;;0.30;99.90;;;;;;5049487;28;20041;-76
2021/12/06 05:11:05;;;;;;;32.88;14.75;;;0.30;99.90;;;;;;5049579;28;20079;-76
2021/12/06 05:13:33;;;;;;;35.50;15.93;;;0.30;99.90;;;;;;5048377;28;20068;-75
2021/12/06 05:15:59;;;;;;;35.13;13.23;;;0.30;99.90;;;;;;5064270;28;20035;-76
2021/12/06 05:18:25;;;;;;;36.38;15.27;;;0.30;99.90;;;;;;5048469;28;20363;-74
2021/12/06 05:20:51;;;;;;;32.80;13.75;;;0.30;99.90;;;;;;5058384;28;20067;-76
2021/12/06 05:23:21;;;;;;;34.75;13.93;;;0.30;99.90;;;;;;5049497;28;20025;-75
2021/12/06 05:25:49;;;;;;;34.67;15.35;;;0.30;99.90;;;;;;5060159;28;20048;-76
2021/12/06 05:28:21;;;;;;;33.05;15.48;;;0.30;99.90;;;;;;5085039;28;20033;-75
2021/12/06 05:30:54;;;;;;;33.58;13.27;;;0.30;99.90;;;;;;5077403;28;20479;-76
2021/12/06 05:33:29;;;;;;;32.38;14.93;;;0.30;99.90;;;;;;5069715;28;20021;-76
2021/12/06 05:35:56;;;;;;;32.30;13.82;;;0.30;99.90;;;;;;5069069;28;20464;-76
2021/12/06 05:38:21;;;;;;;33.58;14.60;;;0.30;99.90;;;;;;5069648;28;20039;-77
2021/12/06 05:40:47;;;;;;;34.70;16.45;;;0.40;99.90;;;;;;5057033;28;20323;-76
2021/12/06 05:43:13;;;;;;;34.70;14.83;;;0.30;99.90;;;;;;5049615;28;20053;-76
2021/12/06 05:45:39;;;;;;;33.38;14.48;;;0.40;99.90;;;;;;5049068;28;20029;-77
2021/12/06 05:48:05;;;;;;;37.97;14.40;;;0.30;99.90;;;;;;5049271;28;20025;-76
2021/12/06 05:50:34;;;;;;;37.42;14.70;;;0.30;99.90;;;;;;5058149;28;20445;-77
2021/12/06 05:52:59;;;;;;;32.88;14.52;;;0.30;99.90;;;;;;5068899;28;20047;-77
2021/12/06 05:55:31;;;;;;;35.47;16.47;;;0.40;99.90;;;;;;5061319;28;20029;-77
2021/12/06 05:58:00;;;;;;;40.90;15.93;;;0.40;99.90;;;;;;5053563;28;20035;-77
2021/12/06 06:00:29;;;;;;;39.38;15.88;;;0.40;99.90;;;;;;5060814;28;20039;-77
2021/12/06 06:02:56;;;;;;;41.90;16.15;;;0.40;99.90;;;;;;5072902;28;20033;-77
2021/12/06 06:05:21;;;;;;;43.67;17.88;;;0.50;99.90;;;;;;5061650;28;20337;-76
2021/12/06 06:07:48;;;;;;;38.90;16.73;;;0.40;99.90;;;;;;5053134;28;20044;-77
2021/12/06 06:10:15;;;;;;;;;;;0.40;99.90;;;;;;5059761;28;20020;-77
2021/12/06 06:12:44;;;;;;;44.35;17.60;;;0.50;99.90;;;;;;5072804;28;20329;-77
2021/12/06 06:15:10;;;;;;;45.72;19.13;;;0.50;99.90;;;;;;5065460;28;20398;-77
2021/12/06 06:17:42;;;;;;;36.25;15.68;;;0.50;99.90;;;;;;5052823;28;20029;-80
2021/12/06 06:20:18;;;;;;;47.00;17.75;;;0.50;99.90;;;;;;5067376;28;20025;-72
2021/12/06 06:22:44;;;;;;;38.47;16.47;;;0.60;99.90;;;;;;5069810;28;20028;-70
2021/12/06 06:25:11;;;;;;;38.88;17.90;;;0.70;99.90;;;;;;5063667;28;20017;-72
2021/12/06 06:27:37;;;;;;;40.15;17.27;;;0.70;99.90;;;;;;5051046;28;20029;-72
2021/12/06 06:30:04;;;;;;;36.53;17.15;;;0.70;99.90;;;;;;5051414;28;20027;-70
2021/12/06 06:32:33;;;;;;;43.13;18.42;;;0.80;99.90;;;;;;5050028;28;20033;-71
2021/12/06 06:34:59;;;;;;;41.17;17.92;;;0.80;99.90;;;;;;5057995;28;20024;-71
2021/12/06 06:37:25;;;;;;;44.60;18.70;;;0.80;99.90;;;;;;5071096;28;20039;-72
2021/12/06 06:39:51;;;;;;;44.78;18.38;;;0.80;99.90;;;;;;5071153;28;20544;-73
2021/12/06 06:42:23;;;;;;;40.83;16.77;;;0.80;99.90;;;;;;5070204;28;20028;-71
2021/12/06 06:44:51;;;;;;;44.58;18.05;;;0.80;99.90;;;;;;5066188;28;20108;-70
2021/12/06 06:47:17;;;;;;;41.72;17.52;;;0.90;99.90;;;;;;5050747;28;20017;-73
2021/12/06 06:49:43;;;;;;;42.67;17.27;;;0.90;99.90;;;;;;5050272;28;20029;-72
2021/12/06 06:52:08;;;;;;;40.27;18.27;;;0.90;99.90;;;;;;5051259;28;20568;-71
2021/12/06 06:54:34;;;;;;;41.90;17.27;;;0.90;99.90;;;;;;5053075;28;20337;-72
2021/12/06 06:57:00;;;;;;;46.90;18.07;;;0.90;99.90;;;;;;5070667;28;20035;-74
2021/12/06 06:59:26;;;;;;;41.05;17.60;;;1.00;99.90;;;;;;5069748;28;20484;-71
2021/12/06 07:01:53;;;;;;;49.72;19.77;;;0.90;99.90;;;;;;5050979;28;20048;-73
2021/12/06 07:04:19;;;;;;;;;;;1.00;99.90;;;;;;5049617;28;20063;-72
2021/12/06 07:06:45;;;;;;;45.08;17.40;;;1.00;99.90;;;;;;5049423;28;19948;-72
2021/12/06 07:09:11;;;;;;;44.65;19.05;;;0.90;99.90;;;;;;5049636;28;20037;-71
2021/12/06 07:11:37;;;;;;;40.08;17.52;;;0.90;99.90;;;;;;5069941;28;20036;-74
2021/12/06 07:14:03;;;;;;;44.53;17.75;;;1.00;99.90;;;;;;5070544;28;20129;-72
2021/12/06 07:16:29;;;;;;;;;;;1.00;99.90;;;;;;5052264;28;20033;-71
2021/12/06 07:18:57;;;;;;;42.97;17.52;;;1.10;99.90;;;;;;5049722;28;19912;-72
2021/12/06 07:21:23;;;;;;;45.90;18.13;;;1.10;99.90;;;;;;5057606;28;20078;-70
2021/12/06 07:23:51;;;;;;;48.37;18.50;;;1.20;99.90;;;;;;5070383;28;20063;-72
2021/12/06 07:26:19;;;;;;;45.78;19.30;;;1.10;99.90;;;;;;5053357;28;20250;-72
2021/12/06 07:28:47;;;;;;;48.15;18.38;;;1.10;99.90;;;;;;5050914;28;20033;-70
2021/12/06 07:31:14;;;;;;;43.63;17.42;;;1.10;99.90;;;;;;5050148;28;20077;-73
2021/12/06 07:33:42;;;;;;;46.95;20.13;;;1.10;99.90;;;;;;5050052;28;20041;-72
2021/12/06 07:36:09;;;;;;;52.45;18.50;;;1.00;99.90;;;;;;5032046;28;20531;-71
2021/12/06 07:38:37;;;;;;;50.67;17.80;;;1.10;99.90;;;;;;5049078;28;20493;-72
2021/12/06 07:41:05;;;;;;;43.22;18.02;;;1.10;99.90;;;;;;5063367;28;20032;-72
2021/12/06 07:43:31;;;;;;;41.92;17.90;;;1.10;99.90;;;;;;5070018;28;20476;-73
2021/12/06 07:45:56;;;;;;;50.40;19.27;;;1.10;99.90;;;;;;5056709;28;20032;-72
2021/12/06 07:48:25;;;;;;;48.57;19.80;;;1.20;99.90;;;;;;5050501;28;20082;-72
2021/12/06 07:50:51;;;;;;;48.25;18.38;;;1.20;99.90;;;;;;5050128;28;20528;-71
2021/12/06 07:53:17;;;;;;;50.27;18.90;;;1.20;99.90;;;;;;5048499;28;20108;-72
2021/12/06 07:55:43;;;;;;;50.57;18.83;;;1.30;99.90;;;;;;5049300;28;20029;-72
2021/12/06 07:58:14;;;;;;;49.28;19.60;;;1.30;99.90;;;;;;5050457;28;20032;-71
2021/12/06 08:00:44;;;;;;;44.88;18.15;;;1.40;99.90;;;;;;5050198;28;20526;-72
2021/12/06 08:03:14;;;;;;;46.30;19.83;;;1.50;99.90;;;;;;5049958;28;20522;-71
2021/12/06 08:05:43;;;;;;;50.42;19.92;;;1.50;99.90;;;;;;5058990;28;20037;-73
2021/12/06 08:08:30;;;;;;;47.28;18.60;;;1.70;99.90;;;;;;5068567;28;20472;-71
2021/12/06 08:11:04;;;;;;;44.45;18.20;;;1.60;99.90;;;;;;5055883;28;20041;-72
2021/12/06 08:13:32;;;;;;;38.75;17.27;;;1.60;99.90;;;;;;5057953;28;20091;-71
2021/12/06 08:16:02;;;;;;;48.55;17.95;;;1.70;99.90;;;;;;5067911;28;20052;-71
2021/12/06 08:18:27;;;;;;;48.28;19.88;;;1.70;99.90;;;;;;5064243;28;21165;-70
2021/12/06 08:20:54;;;;;;;43.60;17.80;;;1.60;99.90;;;;;;5068743;28;20166;-71
2021/12/06 08:23:20;;;;;;;45.58;16.48;;;1.60;99.90;;;;;;5068878;28;20024;-71
2021/12/06 08:25:48;;;;;;;44.65;16.38;;;1.60;99.90;;;;;;5071975;28;20033;-72
2021/12/06 08:28:15;;;;;;;39.17;16.15;;;1.60;99.90;;;;;;5052976;28;20092;-72
2021/12/06 08:30:44;;;;;;;41.55;17.75;;;1.60;99.90;;;;;;5058932;28;20043;-71
2021/12/06 08:33:12;;;;;;;48.00;18.63;;;1.50;99.90;;;;;;5067433;28;20033;-72
2021/12/06 08:35:41;;;;;;;35.40;15.65;;;1.40;99.90;;;;;;5051680;28;20778;-73
2021/12/06 08:38:10;;;;;;;43.83;18.10;;;1.40;99.90;;;;;;5058701;28;20028;-70
2021/12/06 08:40:37;;;;;;;44.28;18.35;;;1.50;99.90;;;;;;5061200;28;20561;-70
2021/12/06 08:43:03;;;;;;;47.90;18.23;;;1.50;99.90;;;;;;5063575;28;20167;-71
2021/12/06 08:45:30;;;;;;;43.60;17.77;;;1.50;99.90;;;;;;5061130;28;20053;-73
2021/12/06 08:47:57;;;;;;;48.83;18.85;;;1.50;99.90;;;;;;5054751;28;20044;-72
2021/12/06 08:50:24;;;;;;;42.22;18.90;;;1.60;99.90;;;;;;5060274;28;20051;-72
2021/12/06 08:52:51;;;;;;;44.88;20.00;;;1.60;99.90;;;;;;5058857;28;20060;-70
2021/12/06 08:55:18;;;;;;;41.78;16.42;;;1.70;99.90;;;;;;5055962;28;20033;-70
2021/12/06 08:57:44;;;;;;;47.90;17.90;;;1.70;99.90;;;;;;5057310;28;20060;-71
2021/12/06 09:00:16;;;;;;;51.05;17.27;;;1.70;99.90;;;;;;5053332;28;20032;-71
2021/12/06 09:02:44;;;;;;;46.08;17.75;;;1.80;99.90;;;;;;5053114;28;20033;-70
2021/12/06 09:05:11;;;;;;;45.30;18.83;;;1.90;99.90;;;;;;5058038;28;20055;-72
2021/12/06 09:07:37;;;;;;;40.50;17.17;;;1.90;99.90;;;;;;5057610;28;20522;-70
2021/12/06 09:10:09;;;;;;;38.40;15.68;;;2.00;99.90;;;;;;5056948;28;20180;-71
2021/12/06 09:12:35;;;;;;;41.40;17.15;;;1.90;99.90;;;;;;5063887;28;20135;-70
2021/12/06 09:15:05;;;;;;;43.57;18.67;;;1.80;99.90;;;;;;5060483;28;20548;-71
2021/12/06 09:17:31;;;;;;;43.53;17.35;;;1.70;99.90;;;;;;5055252;28;20028;-72
2021/12/06 09:19:57;;;;;;;51.15;18.48;;;1.70;99.90;;;;;;5053800;28;20031;-68
2021/12/06 09:22:24;;;;;;;47.10;20.57;;;1.80;99.90;;;;;;5059048;28;20033;-71
2021/12/06 09:24:50;;;;;;;51.35;19.50;;;1.90;99.90;;;;;;5059578;28;20033;-71
2021/12/06 09:27:18;;;;;;;47.27;18.57;;;2.00;99.90;;;;;;5057095;28;20098;-72
2021/12/06 09:29:44;;;;;;;42.25;18.48;;;2.10;99.90;;;;;;5057274;28;20398;-72
2021/12/06 09:32:13;;;;;;;46.50;18.58;;;2.00;99.90;;;;;;5060780;28;20063;-68
2021/12/06 09:34:43;;;;;;;381.17;172.57;;;2.10;99.90;;;;;;5061761;28;20046;-70
2021/12/06 09:37:09;;;;;;;47.15;19.23;;;2.20;99.90;;;;;;5043369;28;20032;-69
2021/12/06 09:39:35;;;;;;;53.35;20.75;;;2.10;99.90;;;;;;5062452;28;20033;-72
2021/12/06 09:42:02;;;;;;;47.75;20.27;;;2.10;99.90;;;;;;5062677;28;20502;-72
2021/12/06 09:44:28;;;;;;;65.05;24.95;;;2.00;99.90;;;;;;5062035;28;20028;-73
2021/12/06 09:46:54;;;;;;;58.05;24.55;;;2.00;99.90;;;;;;5059348;28;20036;-70
2021/12/06 09:49:22;;;;;;;63.70;23.85;;;2.10;99.90;;;;;;5056928;28;20033;-72
2021/12/06 09:51:52;;;;;;;71.03;25.17;;;2.20;99.90;;;;;;5058239;28;20476;-70
2021/12/06 09:54:23;;;;;;;59.13;22.70;;;2.20;99.90;;;;;;5058707;28;20093;-65
2021/12/06 09:56:50;;;;;;;58.35;24.65;;;2.10;99.90;;;;;;5059285;28;20308;-71
2021/12/06 09:59:24;;;;;;;58.35;22.85;;;2.20;99.90;;;;;;5059351;28;20074;-70
2021/12/06 10:02:03;;;;;;;63.38;23.83;;;2.20;99.90;;;;;;5059271;28;20404;-72
2021/12/06 10:04:31;;;;;;;59.83;22.80;;;2.10;99.90;;;;;;5057734;28;20037;-72
2021/12/06 10:06:58;;;;;;;61.28;25.95;;;2.00;99.90;;;;;;5064299;28;20452;-71
2021/12/06 10:09:33;;;;;;;54.05;24.92;;;2.00;99.90;;;;;;5061344;28;20543;-71
2021/12/06 10:12:01;;;;;;;65.10;24.20;;;2.00;99.90;;;;;;5066687;28;20040;-70
2021/12/06 10:14:27;;;;;;;58.85;23.48;;;2.00;99.90;;;;;;5064534;28;20048;-73
2021/12/06 10:16:53;;;;;;;84.70;24.92;;;2.00;99.90;;;;;;5063416;28;20479;-71
2021/12/06 10:19:21;;;;;;;62.20;23.65;;;2.00;99.90;;;;;;5055409;28;20150;-71
2021/12/06 10:21:48;;;;;;;66.93;24.20;;;2.10;99.90;;;;;;5063443;28;20073;-69
2021/12/06 10:24:18;;;;;;;;;;;2.10;99.90;;;;;;5063687;28;20024;-70
2021/12/06 10:26:44;;;;;;;56.20;19.98;;;2.10;99.90;;;;;;5062067;28;20562;-66
2021/12/06 10:29:19;;;;;;;60.13;24.42;;;2.10;99.90;;;;;;5063910;28;20060;-70
2021/12/06 10:31:47;;;;;;;48.65;21.63;;;2.10;99.90;;;;;;5060509;28;20120;-69
2021/12/06 10:34:27;;;;;;;54.08;21.17;;;2.10;99.90;;;;;;5056046;28;20444;-69
2021/12/06 10:36:54;;;;;;;48.05;19.30;;;2.00;99.90;;;;;;5054919;28;20037;-71
2021/12/06 10:39:22;;;;;;;66.40;26.55;;;2.00;99.90;;;;;;5057777;28;20470;-74
2021/12/06 10:41:50;;;;;;;68.38;24.70;;;2.00;99.90;;;;;;5058035;28;20032;-71
2021/12/06 10:44:16;;;;;;;68.55;26.33;;;2.00;99.90;;;;;;5062786;28;20543;-72
2021/12/06 10:46:48;;;;;;;86.07;29.23;;;2.10;99.90;;;;;;5065416;28;20913;-69
2021/12/06 10:49:19;;;;;;;64.43;24.90;;;2.20;99.90;;;;;;5054557;28;20036;-69
2021/12/06 10:51:45;;;;;;;66.43;24.50;;;2.20;99.90;;;;;;5056522;28;20040;-71
2021/12/06 10:54:20;;;;;;;65.75;24.65;;;2.20;99.90;;;;;;5060032;28;20042;-70
2021/12/06 10:56:51;;;;;;;64.35;21.98;;;2.20;99.90;;;;;;5061123;28;20065;-71
2021/12/06 10:59:30;;;;;;;55.95;21.92;;;2.10;99.90;;;;;;5057003;28;20575;-72
2021/12/06 11:02:02;;;;;;;71.38;23.67;;;2.10;99.90;;;;;;5060670;28;20025;-71
2021/12/06 11:04:28;;;;;;;56.55;21.13;;;2.00;99.90;;;;;;5061007;28;20036;-72
2021/12/06 11:07:04;;;;;;;58.50;24.20;;;2.00;99.90;;;;;;5060676;28;20028;-70
2021/12/06 11:09:32;;;;;;;69.10;28.02;;;2.00;99.90;;;;;;5060015;28;20508;-70
2021/12/06 11:12:01;;;;;;;57.60;19.35;;;2.10;99.90;;;;;;5061869;28;20044;-68
2021/12/06 11:14:30;;;;;;;44.60;18.40;;;2.10;99.90;;;;;;5059719;28;20040;-71
2021/12/06 11:16:59;;;;;;;50.22;19.48;;;2.00;99.90;;;;;;5061259;28;20385;-74
2021/12/06 11:19:26;;;;;;;49.88;20.20;;;2.00;99.90;;;;;;5060565;28;20028;-73
2021/12/06 11:21:55;;;;;;;50.95;21.00;;;2.00;99.90;;;;;;5060418;28;20071;-66
2021/12/06 11:24:46;;;;;;;57.22;22.25;;;2.10;99.90;;;;;;5059199;28;20040;-68
2021/12/06 11:27:22;;;;;;;57.85;22.40;;;2.10;99.90;;;;;;5060668;28;20074;-70
2021/12/06 11:29:52;;;;;;;53.72;20.08;;;2.20;99.90;;;;;;5060055;28;20060;-70
2021/12/06 11:32:22;;;;;;;49.80;19.95;;;2.10;99.90;;;;;;5061150;28;20025;-70
2021/12/06 11:35:04;;;;;;;124.65;55.00;;;2.00;99.90;;;;;;5065434;28;20028;-68
2021/12/06 11:37:35;;;;;;;59.10;23.58;;;1.90;99.90;;;;;;5061397;28;20033;-68
2021/12/06 11:40:08;;;;;;;54.75;21.63;;;2.00;99.90;;;;;;5043019;28;20115;-68
2021/12/06 11:43:00;;;;;;;62.30;22.50;;;2.00;99.90;;;;;;5058506;28;20159;-67
2021/12/06 11:45:52;;;;;;;68.10;23.23;;;2.00;99.90;;;;;;5063431;28;20044;-69
2021/12/06 11:48:20;;;;;;;63.20;21.52;;;2.10;99.90;;;;;;5060797;28;20028;-67
2021/12/06 11:50:57;;;;;;;63.15;23.90;;;2.00;99.90;;;;;;5062908;28;20025;-69
2021/12/06 11:53:26;;;;;;;55.35;20.95;;;2.00;99.90;;;;;;5062447;28;20472;-67
2021/12/06 11:55:57;;;;;;;61.35;23.63;;;2.00;99.90;;;;;;5051198;28;20104;-68
2021/12/06 11:58:31;;;;;;;61.75;23.83;;;1.90;99.90;;;;;;5069299;28;20025;-68
2021/12/06 12:01:15;;;;;;;78.18;23.85;;;1.90;99.90;;;;;;5062458;28;20032;-67
2021/12/06 12:03:44;;;;;;;74.07;23.50;;;2.00;99.90;;;;;;5062717;28;20466;-68
2021/12/06 12:06:33;;;;;;;73.43;27.25;;;2.10;99.90;;;;;;5062795;28;20028;-69
2021/12/06 12:09:21;;;;;;;63.75;24.30;;;2.00;99.90;;;;;;5061574;28;20320;-67
2021/12/06 12:12:09;;;;;;;56.30;23.38;;;2.10;99.90;;;;;;5064712;28;20035;-67
2021/12/06 12:14:37;;;;;;;1056.90;462.13;;;2.10;99.90;;;;;;5055666;28;20079;-67
2021/12/06 12:17:17;;;;;;;102.43;45.20;;;2.10;99.90;;;;;;5061022;28;20067;-68
2021/12/06 12:19:44;;;;;;;66.88;25.65;;;2.10;99.90;;;;;;5057852;28;20493;-67
2021/12/06 12:22:12;;;;;;;60.15;23.00;;;2.10;99.90;;;;;;5065154;28;20038;-69
2021/12/06 12:24:42;;;;;;;74.88;24.70;;;2.10;99.90;;;;;;5045183;28;20835;-68
2021/12/06 12:27:37;;;;;;;63.55;22.90;;;2.10;99.90;;;;;;5063344;28;20028;-67
2021/12/06 12:29:59;;;;;;;58.03;21.85;;;2.10;99.90;;;;;;5065362;28;20033;-67
2021/12/06 12:32:25;;;;;;;56.58;20.00;;;2.00;99.90;;;;;;5064904;28;20431;-67
2021/12/06 12:34:54;;;;;;;60.35;20.67;;;2.10;99.90;;;;;;5066542;28;20109;-67
2021/12/06 12:37:22;;;;;;;72.82;22.33;;;2.10;99.90;;;;;;5062111;28;20115;-67
2021/12/06 12:40:11;;;;;;;74.55;29.80;;;2.00;99.90;;;;;;5061757;28;20036;-65
2021/12/06 12:42:38;;;;;;;69.47;21.85;;;2.10;99.90;;;;;;5061335;28;20064;-69
2021/12/06 12:45:05;;;;;;;66.30;20.42;;;2.10;99.90;;;;;;5059607;28;20107;-69
2021/12/06 12:47:34;;;;;;;53.50;20.60;;;2.10;99.90;;;;;;5062598;28;20090;-66
2021/12/06 12:50:09;;;;;;;49.72;19.48;;;2.10;99.90;;;;;;5058080;28;20029;-66
2021/12/06 12:52:43;;;;;;;41.55;17.80;;;2.10;99.90;;;;;;5064583;28;20066;-65
2021/12/06 12:55:27;;;;;;;49.58;20.02;;;2.10;99.90;;;;;;5061781;28;20044;-67
2021/12/06 12:58:26;;;;;;;343.75;214.43;;;2.10;99.90;;;;;;5054970;28;20557;-68
2021/12/06 13:01:03;;;;;;;74.95;44.83;;;2.10;99.90;;;;;;5058261;28;20052;-70
2021/12/06 13:03:32;;;;;;;51.17;18.75;;;2.20;99.90;;;;;;5060031;28;20087;-66